Pittsburgh, Pennsylvania
Traffic Map
Current Weather Conditions
Pittsburgh, Pennsylvania
Overcast
Overcast
52°
Feels Like: 52°
Wind Chill: 52° Ceiling: 1000
Heat Index: 52° Visibility: 10mi
Dew Point: 48° Wind: 10mph
Humidity: 86% Direction: 210° (SSW)
Pressure: 29.71in Gusts: 0mph
Raw Report DataKAGC 201753Z 21009KT 10SM OVC010 11/09 A2971 RMK AO2 CIG 008V013 SLP069 60018 T01110089 10111 20044 58006
Traffic Incident Summary
Active as of:
Severity:
Category:
InformationThere was an issue retrieving the traffic information for this location. Please try a different location or try again shortly.
Advertisements
Track Severe Weather on mobile